sensor_id;sensor_type;location;lat;lon;timestamp;temperature;humidity
49579;DHT22;35483;50.828;3.228;2022-12-18T00:01:19;-2.90;99.90
49579;DHT22;35483;50.828;3.228;2022-12-18T00:03:46;-2.90;99.90
49579;DHT22;35483;50.828;3.228;2022-12-18T00:06:12;-2.90;99.90
49579;DHT22;35483;50.828;3.228;2022-12-18T00:08:40;-2.90;99.90
49579;DHT22;35483;50.828;3.228;2022-12-18T00:11:07;-3.00;99.90
49579;DHT22;35483;50.828;3.228;2022-12-18T00:13:34;-3.00;99.90
49579;DHT22;35483;50.828;3.228;2022-12-18T00:16:08;-3.10;99.90
49579;DHT22;35483;50.828;3.228;2022-12-18T00:18:35;-3.10;99.90
49579;DHT22;35483;50.828;3.228;2022-12-18T00:21:04;-3.10;99.90
49579;DHT22;35483;50.828;3.228;2022-12-18T00:23:30;-3.10;99.90
49579;DHT22;35483;50.828;3.228;2022-12-18T00:26:01;-3.10;99.90
49579;DHT22;35483;50.828;3.228;2022-12-18T00:28:28;-3.10;99.90
49579;DHT22;35483;50.828;3.228;2022-12-18T00:31:06;-3.10;99.90
49579;DHT22;35483;50.828;3.228;2022-12-18T00:33:32;-3.20;99.90
49579;DHT22;35483;50.828;3.228;2022-12-18T00:36:07;-3.20;99.90
49579;DHT22;35483;50.828;3.228;2022-12-18T00:38:34;-3.20;99.90
49579;DHT22;35483;50.828;3.228;2022-12-18T00:41:00;-3.30;99.90
49579;DHT22;35483;50.828;3.228;2022-12-18T00:43:26;-3.30;99.90
49579;DHT22;35483;50.828;3.228;2022-12-18T00:45:53;-3.30;99.90
49579;DHT22;35483;50.828;3.228;2022-12-18T00:48:20;-3.30;99.90
49579;DHT22;35483;50.828;3.228;2022-12-18T00:50:48;-3.30;99.90
49579;DHT22;35483;50.828;3.228;2022-12-18T00:53:14;-3.30;99.90
49579;DHT22;35483;50.828;3.228;2022-12-18T00:55:40;-3.30;99.90
49579;DHT22;35483;50.828;3.228;2022-12-18T00:58:07;-3.40;99.90
49579;DHT22;35483;50.828;3.228;2022-12-18T01:00:34;-3.40;99.90
49579;DHT22;35483;50.828;3.228;2022-12-18T01:03:00;-3.50;99.90
49579;DHT22;35483;50.828;3.228;2022-12-18T01:05:26;-3.50;99.90
49579;DHT22;35483;50.828;3.228;2022-12-18T01:07:52;-3.50;99.90
49579;DHT22;35483;50.828;3.228;2022-12-18T01:10:18;-3.50;99.90
49579;DHT22;35483;50.828;3.228;2022-12-18T01:12:44;-3.50;99.90
49579;DHT22;35483;50.828;3.228;2022-12-18T01:15:12;-3.50;99.90
49579;DHT22;35483;50.828;3.228;2022-12-18T01:17:39;-3.60;99.90
49579;DHT22;35483;50.828;3.228;2022-12-18T01:20:06;-3.60;99.90
49579;DHT22;35483;50.828;3.228;2022-12-18T01:22:32;-3.60;99.90
49579;DHT22;35483;50.828;3.228;2022-12-18T01:24:58;-3.60;99.90
49579;DHT22;35483;50.828;3.228;2022-12-18T01:27:24;-3.70;99.90
49579;DHT22;35483;50.828;3.228;2022-12-18T01:29:50;-3.70;99.90
49579;DHT22;35483;50.828;3.228;2022-12-18T01:32:16;-3.70;99.90
49579;DHT22;35483;50.828;3.228;2022-12-18T01:34:42;-3.80;99.90
49579;DHT22;35483;50.828;3.228;2022-12-18T01:37:09;-3.80;99.90
49579;DHT22;35483;50.828;3.228;2022-12-18T01:39:35;-3.80;99.90
49579;DHT22;35483;50.828;3.228;2022-12-18T01:42:03;-3.80;99.90
49579;DHT22;35483;50.828;3.228;2022-12-18T01:52:50;-4.00;99.90
49579;DHT22;35483;50.828;3.228;2022-12-18T01:55:20;-4.00;99.90
49579;DHT22;35483;50.828;3.228;2022-12-18T01:57:48;-4.00;99.90
49579;DHT22;35483;50.828;3.228;2022-12-18T02:00:18;-4.00;99.90
49579;DHT22;35483;50.828;3.228;2022-12-18T02:02:45;-4.00;99.90
49579;DHT22;35483;50.828;3.228;2022-12-18T02:05:23;-4.10;99.90
49579;DHT22;35483;50.828;3.228;2022-12-18T02:08:26;-4.10;99.90
49579;DHT22;35483;50.828;3.228;2022-12-18T02:16:44;-4.00;99.90
49579;DHT22;35483;50.828;3.228;2022-12-18T02:19:41;-4.00;99.90
49579;DHT22;35483;50.828;3.228;2022-12-18T02:25:25;-4.00;99.90
49579;DHT22;35483;50.828;3.228;2022-12-18T02:27:54;-4.00;99.90
49579;DHT22;35483;50.828;3.228;2022-12-18T02:30:22;-4.10;99.90
49579;DHT22;35483;50.828;3.228;2022-12-18T02:32:51;-4.10;99.90
49579;DHT22;35483;50.828;3.228;2022-12-18T02:35:23;-4.00;99.90
49579;DHT22;35483;50.828;3.228;2022-12-18T02:37:51;-4.00;99.90
49579;DHT22;35483;50.828;3.228;2022-12-18T02:40:19;-4.00;99.90
49579;DHT22;35483;50.828;3.228;2022-12-18T02:42:46;-4.00;99.90
49579;DHT22;35483;50.828;3.228;2022-12-18T02:45:12;-4.00;99.90
49579;DHT22;35483;50.828;3.228;2022-12-18T02:47:40;-4.00;99.90
49579;DHT22;35483;50.828;3.228;2022-12-18T02:50:38;-4.00;99.90
49579;DHT22;35483;50.828;3.228;2022-12-18T02:53:13;-4.00;99.90
49579;DHT22;35483;50.828;3.228;2022-12-18T02:56:01;-4.00;99.90
49579;DHT22;35483;50.828;3.228;2022-12-18T03:01:38;-4.00;99.90
49579;DHT22;35483;50.828;3.228;2022-12-18T03:04:25;-4.00;99.90
49579;DHT22;35483;50.828;3.228;2022-12-18T03:06:54;-4.00;99.90
49579;DHT22;35483;50.828;3.228;2022-12-18T03:09:42;-4.10;99.90
49579;DHT22;35483;50.828;3.228;2022-12-18T03:12:32;-4.00;99.90
49579;DHT22;35483;50.828;3.228;2022-12-18T03:15:31;-4.00;99.90
49579;DHT22;35483;50.828;3.228;2022-12-18T03:18:12;-4.00;99.90
49579;DHT22;35483;50.828;3.228;2022-12-18T03:20:43;-4.00;99.90
49579;DHT22;35483;50.828;3.228;2022-12-18T03:23:14;-4.00;99.90
49579;DHT22;35483;50.828;3.228;2022-12-18T03:25:43;-3.90;99.90
49579;DHT22;35483;50.828;3.228;2022-12-18T03:28:13;-3.90;99.90
49579;DHT22;35483;50.828;3.228;2022-12-18T03:30:41;-3.90;99.90
49579;DHT22;35483;50.828;3.228;2022-12-18T03:33:27;-3.90;99.90
49579;DHT22;35483;50.828;3.228;2022-12-18T03:35:55;-3.80;99.90
49579;DHT22;35483;50.828;3.228;2022-12-18T03:38:21;-3.90;99.90
49579;DHT22;35483;50.828;3.228;2022-12-18T03:43:42;-3.80;99.90
49579;DHT22;35483;50.828;3.228;2022-12-18T03:51:39;-3.80;99.90
49579;DHT22;35483;50.828;3.228;2022-12-18T03:54:08;-3.80;99.90
49579;DHT22;35483;50.828;3.228;2022-12-18T03:56:46;-3.80;99.90
49579;DHT22;35483;50.828;3.228;2022-12-18T03:59:15;-3.80;99.90
49579;DHT22;35483;50.828;3.228;2022-12-18T04:01:46;-3.80;99.90
49579;DHT22;35483;50.828;3.228;2022-12-18T04:04:13;-3.80;99.90
49579;DHT22;35483;50.828;3.228;2022-12-18T04:06:41;-3.90;99.90
49579;DHT22;35483;50.828;3.228;2022-12-18T04:09:07;-3.80;99.90
49579;DHT22;35483;50.828;3.228;2022-12-18T04:11:33;-3.80;99.90
49579;DHT22;35483;50.828;3.228;2022-12-18T04:13:59;-3.80;99.90
49579;DHT22;35483;50.828;3.228;2022-12-18T04:16:26;-3.80;99.90
49579;DHT22;35483;50.828;3.228;2022-12-18T04:18:52;-3.90;99.90
49579;DHT22;35483;50.828;3.228;2022-12-18T04:21:18;-3.90;99.90
49579;DHT22;35483;50.828;3.228;2022-12-18T04:23:45;-3.90;99.90
49579;DHT22;35483;50.828;3.228;2022-12-18T04:26:12;-3.90;99.90
49579;DHT22;35483;50.828;3.228;2022-12-18T04:28:38;-4.00;99.90
49579;DHT22;35483;50.828;3.228;2022-12-18T04:31:05;-4.00;99.90
49579;DHT22;35483;50.828;3.228;2022-12-18T04:33:32;-3.90;99.90
49579;DHT22;35483;50.828;3.228;2022-12-18T04:35:58;-3.90;99.90
49579;DHT22;35483;50.828;3.228;2022-12-18T04:38:24;-4.00;99.90
49579;DHT22;35483;50.828;3.228;2022-12-18T04:40:50;-4.00;99.90
49579;DHT22;35483;50.828;3.228;2022-12-18T04:43:16;-4.00;99.90
49579;DHT22;35483;50.828;3.228;2022-12-18T04:45:42;-4.10;99.90
49579;DHT22;35483;50.828;3.228;2022-12-18T04:48:08;-4.10;99.90
49579;DHT22;35483;50.828;3.228;2022-12-18T04:50:34;-4.10;99.90
49579;DHT22;35483;50.828;3.228;2022-12-18T04:53:00;-4.20;99.90
49579;DHT22;35483;50.828;3.228;2022-12-18T04:55:27;-4.20;99.90
49579;DHT22;35483;50.828;3.228;2022-12-18T04:57:53;-4.20;99.90
49579;DHT22;35483;50.828;3.228;2022-12-18T05:00:20;-4.20;99.90
49579;DHT22;35483;50.828;3.228;2022-12-18T05:02:46;-4.20;99.90
49579;DHT22;35483;50.828;3.228;2022-12-18T05:05:12;-4.20;99.90
49579;DHT22;35483;50.828;3.228;2022-12-18T05:07:38;-4.20;99.90
49579;DHT22;35483;50.828;3.228;2022-12-18T05:10:05;-4.20;99.90
49579;DHT22;35483;50.828;3.228;2022-12-18T05:12:31;-4.20;99.90
49579;DHT22;35483;50.828;3.228;2022-12-18T05:14:57;-4.20;99.90
49579;DHT22;35483;50.828;3.228;2022-12-18T05:17:23;-4.10;99.90
49579;DHT22;35483;50.828;3.228;2022-12-18T05:19:49;-4.10;99.90
49579;DHT22;35483;50.828;3.228;2022-12-18T05:22:15;-4.20;99.90
49579;DHT22;35483;50.828;3.228;2022-12-18T05:24:41;-4.10;99.90
49579;DHT22;35483;50.828;3.228;2022-12-18T05:27:07;-4.20;99.90
49579;DHT22;35483;50.828;3.228;2022-12-18T05:29:33;-4.10;99.90
49579;DHT22;35483;50.828;3.228;2022-12-18T05:31:59;-4.10;99.90
49579;DHT22;35483;50.828;3.228;2022-12-18T05:34:25;-4.10;99.90
49579;DHT22;35483;50.828;3.228;2022-12-18T05:36:51;-4.10;99.90
49579;DHT22;35483;50.828;3.228;2022-12-18T05:39:23;-4.10;99.90
49579;DHT22;35483;50.828;3.228;2022-12-18T05:41:49;-4.10;99.90
49579;DHT22;35483;50.828;3.228;2022-12-18T05:44:15;-4.10;99.90
49579;DHT22;35483;50.828;3.228;2022-12-18T05:46:41;-4.10;99.90
49579;DHT22;35483;50.828;3.228;2022-12-18T05:49:07;-4.10;99.90
49579;DHT22;35483;50.828;3.228;2022-12-18T05:51:33;-4.10;99.90
49579;DHT22;35483;50.828;3.228;2022-12-18T05:53:59;-4.00;99.90
49579;DHT22;35483;50.828;3.228;2022-12-18T05:56:25;-4.10;99.90
49579;DHT22;35483;50.828;3.228;2022-12-18T05:58:52;-4.00;99.90
49579;DHT22;35483;50.828;3.228;2022-12-18T06:01:25;-4.00;99.90
49579;DHT22;35483;50.828;3.228;2022-12-18T06:03:52;-4.00;99.90
49579;DHT22;35483;50.828;3.228;2022-12-18T06:06:23;-4.00;99.90
49579;DHT22;35483;50.828;3.228;2022-12-18T06:08:50;-4.00;99.90
49579;DHT22;35483;50.828;3.228;2022-12-18T06:11:21;-4.00;99.90
49579;DHT22;35483;50.828;3.228;2022-12-18T06:13:50;-3.90;99.90
49579;DHT22;35483;50.828;3.228;2022-12-18T06:16:17;-3.90;99.90
49579;DHT22;35483;50.828;3.228;2022-12-18T06:18:43;-3.90;99.90
49579;DHT22;35483;50.828;3.228;2022-12-18T06:21:09;-3.90;99.90
49579;DHT22;35483;50.828;3.228;2022-12-18T06:23:35;-3.90;99.90
49579;DHT22;35483;50.828;3.228;2022-12-18T06:26:06;-3.90;99.90
49579;DHT22;35483;50.828;3.228;2022-12-18T06:28:32;-3.80;99.90
49579;DHT22;35483;50.828;3.228;2022-12-18T06:30:58;-3.80;99.90
49579;DHT22;35483;50.828;3.228;2022-12-18T06:33:27;-3.80;99.90
49579;DHT22;35483;50.828;3.228;2022-12-18T06:35:54;-3.80;99.90
49579;DHT22;35483;50.828;3.228;2022-12-18T06:38:20;-3.80;99.90
49579;DHT22;35483;50.828;3.228;2022-12-18T06:40:46;-3.80;99.90
49579;DHT22;35483;50.828;3.228;2022-12-18T06:43:12;-3.70;99.90
49579;DHT22;35483;50.828;3.228;2022-12-18T06:45:38;-3.80;99.90
49579;DHT22;35483;50.828;3.228;2022-12-18T06:48:04;-3.70;99.90
49579;DHT22;35483;50.828;3.228;2022-12-18T06:50:29;-3.70;99.90
49579;DHT22;35483;50.828;3.228;2022-12-18T06:52:55;-3.70;99.90
49579;DHT22;35483;50.828;3.228;2022-12-18T06:55:21;-3.70;99.90
49579;DHT22;35483;50.828;3.228;2022-12-18T06:57:47;-3.60;99.90
49579;DHT22;35483;50.828;3.228;2022-12-18T07:00:14;-3.70;99.90
49579;DHT22;35483;50.828;3.228;2022-12-18T07:02:40;-3.70;99.90
49579;DHT22;35483;50.828;3.228;2022-12-18T07:05:08;-3.60;99.90
49579;DHT22;35483;50.828;3.228;2022-12-18T07:07:34;-3.60;99.90
49579;DHT22;35483;50.828;3.228;2022-12-18T07:10:00;-3.60;99.90
49579;DHT22;35483;50.828;3.228;2022-12-18T07:12:27;-3.60;99.90
49579;DHT22;35483;50.828;3.228;2022-12-18T07:14:53;-3.60;99.90
49579;DHT22;35483;50.828;3.228;2022-12-18T07:17:19;-3.60;99.90
49579;DHT22;35483;50.828;3.228;2022-12-18T07:19:45;-3.60;99.90
49579;DHT22;35483;50.828;3.228;2022-12-18T07:22:11;-3.60;99.90
49579;DHT22;35483;50.828;3.228;2022-12-18T07:24:37;-3.60;99.90
49579;DHT22;35483;50.828;3.228;2022-12-18T07:27:03;-3.50;99.90
49579;DHT22;35483;50.828;3.228;2022-12-18T07:29:29;-3.60;99.90
49579;DHT22;35483;50.828;3.228;2022-12-18T07:31:54;-3.50;99.90
49579;DHT22;35483;50.828;3.228;2022-12-18T07:34:21;-3.50;99.90
49579;DHT22;35483;50.828;3.228;2022-12-18T07:36:47;-3.50;99.90
49579;DHT22;35483;50.828;3.228;2022-12-18T07:39:13;-3.50;99.90
49579;DHT22;35483;50.828;3.228;2022-12-18T07:41:40;-3.50;99.90
49579;DHT22;35483;50.828;3.228;2022-12-18T07:44:12;-3.40;99.90
49579;DHT22;35483;50.828;3.228;2022-12-18T07:46:38;-3.40;99.90
49579;DHT22;35483;50.828;3.228;2022-12-18T07:49:04;-3.40;99.90
49579;DHT22;35483;50.828;3.228;2022-12-18T07:51:30;-3.40;99.90
49579;DHT22;35483;50.828;3.228;2022-12-18T07:53:56;-3.40;99.90
49579;DHT22;35483;50.828;3.228;2022-12-18T07:56:22;-3.30;99.90
49579;DHT22;35483;50.828;3.228;2022-12-18T07:58:48;-3.30;99.90
49579;DHT22;35483;50.828;3.228;2022-12-18T08:01:14;-3.20;99.90
49579;DHT22;35483;50.828;3.228;2022-12-18T08:03:40;-3.10;99.90
49579;DHT22;35483;50.828;3.228;2022-12-18T08:06:08;-3.00;99.90
49579;DHT22;35483;50.828;3.228;2022-12-18T08:08:35;-2.90;99.90
49579;DHT22;35483;50.828;3.228;2022-12-18T08:11:01;-2.80;99.90
49579;DHT22;35483;50.828;3.228;2022-12-18T08:13:28;-2.70;99.90
49579;DHT22;35483;50.828;3.228;2022-12-18T08:16:05;-2.70;99.90
49579;DHT22;35483;50.828;3.228;2022-12-18T08:18:36;-2.60;99.90
49579;DHT22;35483;50.828;3.228;2022-12-18T08:21:14;-2.60;99.90
49579;DHT22;35483;50.828;3.228;2022-12-18T08:23:40;-2.50;99.90
49579;DHT22;35483;50.828;3.228;2022-12-18T08:26:06;-2.50;99.90
49579;DHT22;35483;50.828;3.228;2022-12-18T08:28:33;-2.40;99.90
49579;DHT22;35483;50.828;3.228;2022-12-18T08:30:59;-2.40;99.90
49579;DHT22;35483;50.828;3.228;2022-12-18T08:33:25;-2.30;99.90
49579;DHT22;35483;50.828;3.228;2022-12-18T08:35:52;-2.30;99.90
49579;DHT22;35483;50.828;3.228;2022-12-18T08:38:18;-2.20;99.90
49579;DHT22;35483;50.828;3.228;2022-12-18T08:40:44;-2.20;99.90
49579;DHT22;35483;50.828;3.228;2022-12-18T08:43:10;-2.10;99.90
49579;DHT22;35483;50.828;3.228;2022-12-18T08:45:55;-2.10;99.90
49579;DHT22;35483;50.828;3.228;2022-12-18T08:48:21;-2.10;99.90
49579;DHT22;35483;50.828;3.228;2022-12-18T08:50:58;-2.00;99.90
49579;DHT22;35483;50.828;3.228;2022-12-18T08:53:26;-1.90;99.80
49579;DHT22;35483;50.828;3.228;2022-12-18T08:55:53;-1.90;99.90
49579;DHT22;35483;50.828;3.228;2022-12-18T08:58:19;-1.90;99.80
49579;DHT22;35483;50.828;3.228;2022-12-18T09:00:45;-1.80;99.90
49579;DHT22;35483;50.828;3.228;2022-12-18T09:03:16;-1.70;99.80
49579;DHT22;35483;50.828;3.228;2022-12-18T09:05:43;-1.60;99.80
49579;DHT22;35483;50.828;3.228;2022-12-18T09:08:11;-1.60;99.80
49579;DHT22;35483;50.828;3.228;2022-12-18T09:10:44;-1.60;99.60
49579;DHT22;35483;50.828;3.228;2022-12-18T09:13:11;-1.50;99.60
49579;DHT22;35483;50.828;3.228;2022-12-18T09:15:46;-1.50;99.60
49579;DHT22;35483;50.828;3.228;2022-12-18T09:18:13;-1.40;99.60
49579;DHT22;35483;50.828;3.228;2022-12-18T09:20:40;-1.50;99.40
49579;DHT22;35483;50.828;3.228;2022-12-18T09:23:07;-1.50;99.50
49579;DHT22;35483;50.828;3.228;2022-12-18T09:25:34;-1.40;99.60
49579;DHT22;35483;50.828;3.228;2022-12-18T09:28:03;-1.40;99.80
49579;DHT22;35483;50.828;3.228;2022-12-18T09:30:29;-1.30;99.70
49579;DHT22;35483;50.828;3.228;2022-12-18T09:32:55;-1.20;99.50
49579;DHT22;35483;50.828;3.228;2022-12-18T09:35:21;-1.20;99.60
49579;DHT22;35483;50.828;3.228;2022-12-18T09:37:48;-1.20;99.70
49579;DHT22;35483;50.828;3.228;2022-12-18T09:40:23;-1.10;99.70
49579;DHT22;35483;50.828;3.228;2022-12-18T09:43:15;-1.00;99.50
49579;DHT22;35483;50.828;3.228;2022-12-18T09:45:44;-1.00;99.40
49579;DHT22;35483;50.828;3.228;2022-12-18T09:48:25;-1.00;99.40
49579;DHT22;35483;50.828;3.228;2022-12-18T09:50:55;-0.90;99.40
49579;DHT22;35483;50.828;3.228;2022-12-18T09:53:25;-1.00;99.40
49579;DHT22;35483;50.828;3.228;2022-12-18T09:55:52;-0.90;99.50
49579;DHT22;35483;50.828;3.228;2022-12-18T09:58:43;-0.90;99.40
49579;DHT22;35483;50.828;3.228;2022-12-18T10:01:18;-0.90;99.50
49579;DHT22;35483;50.828;3.228;2022-12-18T10:03:46;-0.80;99.50
49579;DHT22;35483;50.828;3.228;2022-12-18T10:06:23;-0.80;98.90
49579;DHT22;35483;50.828;3.228;2022-12-18T10:12:09;-0.70;99.10
49579;DHT22;35483;50.828;3.228;2022-12-18T10:14:51;-0.70;99.50
49579;DHT22;35483;50.828;3.228;2022-12-18T10:17:51;-0.70;99.70
49579;DHT22;35483;50.828;3.228;2022-12-18T10:20:40;-0.60;98.40
49579;DHT22;35483;50.828;3.228;2022-12-18T10:26:04;-0.60;98.60
49579;DHT22;35483;50.828;3.228;2022-12-18T10:28:32;-0.60;99.50
49579;DHT22;35483;50.828;3.228;2022-12-18T10:30:59;-0.60;99.50
49579;DHT22;35483;50.828;3.228;2022-12-18T10:33:29;-0.60;99.20
49579;DHT22;35483;50.828;3.228;2022-12-18T10:35:55;-0.50;99.50
49579;DHT22;35483;50.828;3.228;2022-12-18T10:38:27;-0.50;99.50
49579;DHT22;35483;50.828;3.228;2022-12-18T10:41:01;-0.40;99.30
49579;DHT22;35483;50.828;3.228;2022-12-18T10:51:05;-0.40;99.30
49579;DHT22;35483;50.828;3.228;2022-12-18T10:53:33;-0.40;99.30
49579;DHT22;35483;50.828;3.228;2022-12-18T10:56:00;-0.30;99.50
49579;DHT22;35483;50.828;3.228;2022-12-18T10:58:38;-0.40;99.20
49579;DHT22;35483;50.828;3.228;2022-12-18T11:01:15;-0.30;98.90
49579;DHT22;35483;50.828;3.228;2022-12-18T11:03:45;-0.30;99.10
49579;DHT22;35483;50.828;3.228;2022-12-18T11:06:19;-0.30;99.20
49579;DHT22;35483;50.828;3.228;2022-12-18T11:09:19;-0.20;99.20
49579;DHT22;35483;50.828;3.228;2022-12-18T11:11:50;-0.20;99.20
49579;DHT22;35483;50.828;3.228;2022-12-18T11:14:26;-0.20;99.40
49579;DHT22;35483;50.828;3.228;2022-12-18T11:16:53;-0.20;99.20
49579;DHT22;35483;50.828;3.228;2022-12-18T11:19:33;-0.10;99.40
49579;DHT22;35483;50.828;3.228;2022-12-18T11:22:01;-0.20;98.90
49579;DHT22;35483;50.828;3.228;2022-12-18T11:26:54;-0.10;99.40
49579;DHT22;35483;50.828;3.228;2022-12-18T11:29:37;0.00;99.40
49579;DHT22;35483;50.828;3.228;2022-12-18T11:37:35;0.10;99.20
49579;DHT22;35483;50.828;3.228;2022-12-18T11:40:16;0.10;99.20
49579;DHT22;35483;50.828;3.228;2022-12-18T11:45:31;0.20;99.10
49579;DHT22;35483;50.828;3.228;2022-12-18T11:48:05;0.30;99.00
49579;DHT22;35483;50.828;3.228;2022-12-18T11:53:13;0.30;99.20
49579;DHT22;35483;50.828;3.228;2022-12-18T11:56:15;0.30;99.30
49579;DHT22;35483;50.828;3.228;2022-12-18T11:59:08;0.30;97.80
49579;DHT22;35483;50.828;3.228;2022-12-18T12:04:38;0.40;99.50
49579;DHT22;35483;50.828;3.228;2022-12-18T12:13:04;0.50;99.10
49579;DHT22;35483;50.828;3.228;2022-12-18T12:21:25;0.60;97.90
49579;DHT22;35483;50.828;3.228;2022-12-18T12:35:15;0.40;97.90
49579;DHT22;35483;50.828;3.228;2022-12-18T12:40:36;0.50;98.40
49579;DHT22;35483;50.828;3.228;2022-12-18T12:43:22;0.40;98.80
49579;DHT22;35483;50.828;3.228;2022-12-18T12:46:03;0.40;99.00
49579;DHT22;35483;50.828;3.228;2022-12-18T12:51:29;0.50;98.20
49579;DHT22;35483;50.828;3.228;2022-12-18T12:53:57;0.40;98.40
49579;DHT22;35483;50.828;3.228;2022-12-18T12:56:29;0.50;99.10
49579;DHT22;35483;50.828;3.228;2022-12-18T12:59:15;0.50;98.30
49579;DHT22;35483;50.828;3.228;2022-12-18T13:04:38;0.60;98.20
49579;DHT22;35483;50.828;3.228;2022-12-18T13:10:14;0.60;99.00
49579;DHT22;35483;50.828;3.228;2022-12-18T13:13:01;0.70;97.70
49579;DHT22;35483;50.828;3.228;2022-12-18T13:20:40;0.60;98.70
49579;DHT22;35483;50.828;3.228;2022-12-18T13:23:26;0.60;98.70
49579;DHT22;35483;50.828;3.228;2022-12-18T13:25:53;0.70;98.40
49579;DHT22;35483;50.828;3.228;2022-12-18T13:31:00;0.60;98.60
49579;DHT22;35483;50.828;3.228;2022-12-18T13:33:35;0.60;99.10
49579;DHT22;35483;50.828;3.228;2022-12-18T13:36:28;0.70;99.00
49579;DHT22;35483;50.828;3.228;2022-12-18T13:41:49;0.70;98.70
49579;DHT22;35483;50.828;3.228;2022-12-18T13:44:36;0.70;98.70
49579;DHT22;35483;50.828;3.228;2022-12-18T13:47:04;0.80;97.30
49579;DHT22;35483;50.828;3.228;2022-12-18T13:49:43;0.70;98.90
49579;DHT22;35483;50.828;3.228;2022-12-18T13:52:24;0.80;98.80
49579;DHT22;35483;50.828;3.228;2022-12-18T13:54:56;0.90;97.90
49579;DHT22;35483;50.828;3.228;2022-12-18T13:59:56;0.80;97.90
49579;DHT22;35483;50.828;3.228;2022-12-18T14:02:24;0.70;98.80
49579;DHT22;35483;50.828;3.228;2022-12-18T14:04:51;0.80;98.80
49579;DHT22;35483;50.828;3.228;2022-12-18T14:07:25;0.70;98.80
49579;DHT22;35483;50.828;3.228;2022-12-18T14:09:59;0.80;99.10
49579;DHT22;35483;50.828;3.228;2022-12-18T14:12:33;0.80;98.90
49579;DHT22;35483;50.828;3.228;2022-12-18T14:15:41;0.80;98.60
49579;DHT22;35483;50.828;3.228;2022-12-18T14:20:48;0.80;98.70
49579;DHT22;35483;50.828;3.228;2022-12-18T14:23:34;0.80;98.70
49579;DHT22;35483;50.828;3.228;2022-12-18T14:26:25;0.80;98.40
49579;DHT22;35483;50.828;3.228;2022-12-18T14:28:51;0.90;98.90
49579;DHT22;35483;50.828;3.228;2022-12-18T14:31:21;0.80;98.70
49579;DHT22;35483;50.828;3.228;2022-12-18T14:33:48;0.90;98.50
49579;DHT22;35483;50.828;3.228;2022-12-18T14:36:21;0.80;98.60
49579;DHT22;35483;50.828;3.228;2022-12-18T14:38:50;0.80;98.70
49579;DHT22;35483;50.828;3.228;2022-12-18T14:41:17;0.80;98.80
49579;DHT22;35483;50.828;3.228;2022-12-18T14:43:46;0.80;98.90
49579;DHT22;35483;50.828;3.228;2022-12-18T14:48:51;0.80;98.70
49579;DHT22;35483;50.828;3.228;2022-12-18T14:51:21;0.80;98.90
49579;DHT22;35483;50.828;3.228;2022-12-18T14:56:30;0.90;99.20
49579;DHT22;35483;50.828;3.228;2022-12-18T14:59:04;0.90;98.90
49579;DHT22;35483;50.828;3.228;2022-12-18T15:01:35;0.90;98.90
49579;DHT22;35483;50.828;3.228;2022-12-18T15:04:03;0.90;98.80
49579;DHT22;35483;50.828;3.228;2022-12-18T15:06:35;0.90;99.10
49579;DHT22;35483;50.828;3.228;2022-12-18T15:09:23;1.00;99.20
49579;DHT22;35483;50.828;3.228;2022-12-18T15:11:58;1.00;99.20
49579;DHT22;35483;50.828;3.228;2022-12-18T15:14:39;0.90;99.00
49579;DHT22;35483;50.828;3.228;2022-12-18T15:17:18;1.00;98.60
49579;DHT22;35483;50.828;3.228;2022-12-18T15:19:46;1.00;98.40
49579;DHT22;35483;50.828;3.228;2022-12-18T15:22:34;0.90;99.10
49579;DHT22;35483;50.828;3.228;2022-12-18T15:25:01;1.00;98.70
49579;DHT22;35483;50.828;3.228;2022-12-18T15:27:33;0.90;98.90
49579;DHT22;35483;50.828;3.228;2022-12-18T15:32:35;0.90;99.10
49579;DHT22;35483;50.828;3.228;2022-12-18T15:37:29;0.90;99.00
49579;DHT22;35483;50.828;3.228;2022-12-18T15:39:55;0.90;99.20
49579;DHT22;35483;50.828;3.228;2022-12-18T15:42:21;1.00;99.20
49579;DHT22;35483;50.828;3.228;2022-12-18T15:45:07;1.00;99.10
49579;DHT22;35483;50.828;3.228;2022-12-18T15:47:34;1.00;99.10
49579;DHT22;35483;50.828;3.228;2022-12-18T15:49:59;1.00;99.10
49579;DHT22;35483;50.828;3.228;2022-12-18T15:52:25;1.10;99.10
49579;DHT22;35483;50.828;3.228;2022-12-18T15:54:52;1.10;99.20
49579;DHT22;35483;50.828;3.228;2022-12-18T15:57:36;1.00;99.20
49579;DHT22;35483;50.828;3.228;2022-12-18T16:00:02;1.10;99.40
49579;DHT22;35483;50.828;3.228;2022-12-18T16:02:28;1.10;99.40
49579;DHT22;35483;50.828;3.228;2022-12-18T16:04:54;1.20;99.40
49579;DHT22;35483;50.828;3.228;2022-12-18T16:07:21;1.20;99.30
49579;DHT22;35483;50.828;3.228;2022-12-18T16:09:46;1.20;99.20
49579;DHT22;35483;50.828;3.228;2022-12-18T16:12:18;1.10;99.50
49579;DHT22;35483;50.828;3.228;2022-12-18T16:14:45;1.10;99.60
49579;DHT22;35483;50.828;3.228;2022-12-18T16:17:12;1.10;99.70
49579;DHT22;35483;50.828;3.228;2022-12-18T16:19:38;1.20;99.70
49579;DHT22;35483;50.828;3.228;2022-12-18T16:22:05;1.20;99.70
49579;DHT22;35483;50.828;3.228;2022-12-18T16:24:32;1.30;99.80
49579;DHT22;35483;50.828;3.228;2022-12-18T16:27:00;1.30;99.80
49579;DHT22;35483;50.828;3.228;2022-12-18T16:29:27;1.30;99.90
49579;DHT22;35483;50.828;3.228;2022-12-18T16:31:54;1.30;99.90
49579;DHT22;35483;50.828;3.228;2022-12-18T16:34:23;1.20;99.90
49579;DHT22;35483;50.828;3.228;2022-12-18T16:36:52;1.30;99.90
49579;DHT22;35483;50.828;3.228;2022-12-18T16:39:19;1.30;99.90
49579;DHT22;35483;50.828;3.228;2022-12-18T16:41:46;1.30;99.90
49579;DHT22;35483;50.828;3.228;2022-12-18T16:44:13;1.30;99.90
49579;DHT22;35483;50.828;3.228;2022-12-18T16:46:39;1.40;99.90
49579;DHT22;35483;50.828;3.228;2022-12-18T16:49:08;1.40;99.90
49579;DHT22;35483;50.828;3.228;2022-12-18T16:51:35;1.40;99.90
49579;DHT22;35483;50.828;3.228;2022-12-18T16:54:02;1.40;99.90
49579;DHT22;35483;50.828;3.228;2022-12-18T16:56:28;1.40;99.90
49579;DHT22;35483;50.828;3.228;2022-12-18T16:58:56;1.40;99.90
49579;DHT22;35483;50.828;3.228;2022-12-18T17:01:23;1.40;99.90
49579;DHT22;35483;50.828;3.228;2022-12-18T17:03:57;1.30;99.90
49579;DHT22;35483;50.828;3.228;2022-12-18T17:06:25;1.50;99.90
49579;DHT22;35483;50.828;3.228;2022-12-18T17:08:57;1.40;99.90
49579;DHT22;35483;50.828;3.228;2022-12-18T17:11:24;1.50;99.90
49579;DHT22;35483;50.828;3.228;2022-12-18T17:13:50;1.50;99.90
49579;DHT22;35483;50.828;3.228;2022-12-18T17:16:16;1.60;99.90
49579;DHT22;35483;50.828;3.228;2022-12-18T17:18:42;1.50;99.90
49579;DHT22;35483;50.828;3.228;2022-12-18T17:21:09;1.60;99.90
49579;DHT22;35483;50.828;3.228;2022-12-18T17:23:36;1.50;99.90
49579;DHT22;35483;50.828;3.228;2022-12-18T17:26:03;1.60;99.90
49579;DHT22;35483;50.828;3.228;2022-12-18T17:28:32;1.60;99.90
49579;DHT22;35483;50.828;3.228;2022-12-18T17:30:59;1.50;99.90
49579;DHT22;35483;50.828;3.228;2022-12-18T17:33:26;1.60;99.90
49579;DHT22;35483;50.828;3.228;2022-12-18T17:35:52;1.60;99.90
49579;DHT22;35483;50.828;3.228;2022-12-18T17:38:18;1.60;99.90
49579;DHT22;35483;50.828;3.228;2022-12-18T17:40:46;1.60;99.90
49579;DHT22;35483;50.828;3.228;2022-12-18T17:43:12;1.60;99.90
49579;DHT22;35483;50.828;3.228;2022-12-18T17:45:38;1.60;99.90
49579;DHT22;35483;50.828;3.228;2022-12-18T17:48:06;1.70;99.90
49579;DHT22;35483;50.828;3.228;2022-12-18T17:50:33;1.60;99.90
49579;DHT22;35483;50.828;3.228;2022-12-18T17:52:59;1.70;99.90